sensor_id;sensor_type;location;lat;lon;timestamp;pressure;altitude;pressure_sealevel;temperature;humidity
17521;BME280;8878;-33.370;-70.552;2023-05-09T00:00:37;92271.06;;;19.10;34.05
17521;BME280;8878;-33.370;-70.552;2023-05-09T00:03:07;92278.41;;;19.04;33.33
17521;BME280;8878;-33.370;-70.552;2023-05-09T00:05:40;92280.63;;;18.94;33.08
17521;BME280;8878;-33.370;-70.552;2023-05-09T00:08:10;92277.16;;;18.93;33.88
17521;BME280;8878;-33.370;-70.552;2023-05-09T00:10:40;92277.16;;;18.93;33.17
17521;BME280;8878;-33.370;-70.552;2023-05-09T00:13:10;92265.84;;;18.88;32.43
17521;BME280;8878;-33.370;-70.552;2023-05-09T00:15:40;92261.44;;;18.92;31.60
17521;BME280;8878;-33.370;-70.552;2023-05-09T00:18:11;92261.59;;;18.87;32.41
17521;BME280;8878;-33.370;-70.552;2023-05-09T00:20:42;92253.09;;;18.85;32.59
17521;BME280;8878;-33.370;-70.552;2023-05-09T00:23:12;92255.78;;;18.85;32.58
17521;BME280;8878;-33.370;-70.552;2023-05-09T00:25:43;92255.63;;;18.81;32.75
17521;BME280;8878;-33.370;-70.552;2023-05-09T00:28:13;92252.31;;;18.75;32.92
17521;BME280;8878;-33.370;-70.552;2023-05-09T00:30:42;92248.19;;;18.69;33.05
17521;BME280;8878;-33.370;-70.552;2023-05-09T00:33:12;92242.84;;;18.69;33.25
17521;BME280;8878;-33.370;-70.552;2023-05-09T00:35:43;92240.19;;;18.69;32.82
17521;BME280;8878;-33.370;-70.552;2023-05-09T00:38:13;92228.41;;;18.70;32.44
17521;BME280;8878;-33.370;-70.552;2023-05-09T00:40:42;92222.28;;;18.78;31.50
17521;BME280;8878;-33.370;-70.552;2023-05-09T00:43:12;92224.16;;;18.69;31.59
17521;BME280;8878;-33.370;-70.552;2023-05-09T00:45:42;92213.78;;;18.68;30.93
17521;BME280;8878;-33.370;-70.552;2023-05-09T00:48:13;92201.22;;;18.68;31.03
17521;BME280;8878;-33.370;-70.552;2023-05-09T00:50:46;92204.19;;;18.67;31.10
17521;BME280;8878;-33.370;-70.552;2023-05-09T00:53:18;92197.91;;;18.63;30.89
17521;BME280;8878;-33.370;-70.552;2023-05-09T00:55:48;92194.91;;;18.64;29.64
17521;BME280;8878;-33.370;-70.552;2023-05-09T00:58:19;92189.56;;;18.56;29.84
17521;BME280;8878;-33.370;-70.552;2023-05-09T01:00:49;92189.66;;;18.42;30.18
17521;BME280;8878;-33.370;-70.552;2023-05-09T01:03:18;92192.78;;;18.27;30.27
17521;BME280;8878;-33.370;-70.552;2023-05-09T01:05:54;92207.53;;;18.16;29.88
17521;BME280;8878;-33.370;-70.552;2023-05-09T01:08:36;92205.50;;;18.21;30.18
17521;BME280;8878;-33.370;-70.552;2023-05-09T01:11:11;92190.75;;;18.24;29.96
17521;BME280;8878;-33.370;-70.552;2023-05-09T01:13:50;92189.34;;;18.35;29.51
17521;BME280;8878;-33.370;-70.552;2023-05-09T01:16:27;92192.34;;;18.42;28.96
17521;BME280;8878;-33.370;-70.552;2023-05-09T01:19:04;92197.84;;;18.37;30.04
17521;BME280;8878;-33.370;-70.552;2023-05-09T01:21:40;92192.75;;;18.10;30.21
17521;BME280;8878;-33.370;-70.552;2023-05-09T01:27:21;92189.44;;;18.04;31.76
17521;BME280;8878;-33.370;-70.552;2023-05-09T01:29:59;92191.91;;;17.92;31.72
17521;BME280;8878;-33.370;-70.552;2023-05-09T01:32:32;92184.31;;;17.77;33.26
17521;BME280;8878;-33.370;-70.552;2023-05-09T01:35:05;92178.47;;;17.66;33.28
17521;BME280;8878;-33.370;-70.552;2023-05-09T01:37:38;92187.56;;;17.65;33.05
17521;BME280;8878;-33.370;-70.552;2023-05-09T01:40:14;92184.22;;;17.59;32.03
17521;BME280;8878;-33.370;-70.552;2023-05-09T01:42:50;92184.13;;;17.65;31.90
17521;BME280;8878;-33.370;-70.552;2023-05-09T01:45:23;92191.72;;;17.80;31.36
17521;BME280;8878;-33.370;-70.552;2023-05-09T01:47:55;92189.50;;;17.73;30.77
17521;BME280;8878;-33.370;-70.552;2023-05-09T01:50:26;92183.25;;;17.86;31.19
17521;BME280;8878;-33.370;-70.552;2023-05-09T01:52:58;92188.28;;;17.88;31.71
17521;BME280;8878;-33.370;-70.552;2023-05-09T01:55:31;92192.31;;;17.77;30.34
17521;BME280;8878;-33.370;-70.552;2023-05-09T01:58:03;92194.88;;;17.82;29.02
17521;BME280;8878;-33.370;-70.552;2023-05-09T02:00:36;92194.28;;;17.93;31.50
17521;BME280;8878;-33.370;-70.552;2023-05-09T02:03:06;92192.66;;;17.75;33.63
17521;BME280;8878;-33.370;-70.552;2023-05-09T02:05:37;92190.00;;;17.53;34.28
17521;BME280;8878;-33.370;-70.552;2023-05-09T02:08:08;92195.78;;;17.55;33.05
17521;BME280;8878;-33.370;-70.552;2023-05-09T02:10:38;92198.25;;;17.65;32.33
17521;BME280;8878;-33.370;-70.552;2023-05-09T02:13:08;92197.75;;;17.63;32.10
17521;BME280;8878;-33.370;-70.552;2023-05-09T02:15:40;92199.88;;;17.52;32.92
17521;BME280;8878;-33.370;-70.552;2023-05-09T02:18:10;92201.72;;;17.43;33.28
17521;BME280;8878;-33.370;-70.552;2023-05-09T02:20:41;92207.47;;;17.37;33.16
17521;BME280;8878;-33.370;-70.552;2023-05-09T02:23:12;92208.31;;;17.46;31.42
17521;BME280;8878;-33.370;-70.552;2023-05-09T02:25:42;92197.50;;;17.51;31.11
17521;BME280;8878;-33.370;-70.552;2023-05-09T02:28:13;92196.56;;;17.47;32.78
17521;BME280;8878;-33.370;-70.552;2023-05-09T02:30:47;92187.53;;;17.34;31.23
17521;BME280;8878;-33.370;-70.552;2023-05-09T02:33:17;92185.09;;;17.46;31.48
17521;BME280;8878;-33.370;-70.552;2023-05-09T02:35:47;92175.44;;;17.59;31.28
17521;BME280;8878;-33.370;-70.552;2023-05-09T02:38:18;92170.63;;;17.70;30.19
17521;BME280;8878;-33.370;-70.552;2023-05-09T02:40:50;92178.81;;;17.73;31.48
17521;BME280;8878;-33.370;-70.552;2023-05-09T02:43:19;92180.06;;;17.67;32.23
17521;BME280;8878;-33.370;-70.552;2023-05-09T02:45:51;92164.47;;;17.60;32.41
17521;BME280;8878;-33.370;-70.552;2023-05-09T02:48:20;92170.63;;;17.70;31.11
17521;BME280;8878;-33.370;-70.552;2023-05-09T02:50:50;92169.41;;;17.76;30.47
17521;BME280;8878;-33.370;-70.552;2023-05-09T02:53:19;92166.31;;;17.82;29.97
17521;BME280;8878;-33.370;-70.552;2023-05-09T02:55:49;92174.84;;;17.62;30.44
17521;BME280;8878;-33.370;-70.552;2023-05-09T02:58:19;92171.09;;;17.41;30.06
17521;BME280;8878;-33.370;-70.552;2023-05-09T03:00:51;92181.41;;;17.34;29.85
17521;BME280;8878;-33.370;-70.552;2023-05-09T03:03:20;92172.06;;;17.45;29.26
17521;BME280;8878;-33.370;-70.552;2023-05-09T03:05:49;92169.59;;;17.57;30.16
17521;BME280;8878;-33.370;-70.552;2023-05-09T03:08:19;92157.38;;;17.56;31.30
17521;BME280;8878;-33.370;-70.552;2023-05-09T03:10:48;92148.56;;;17.47;32.73
17521;BME280;8878;-33.370;-70.552;2023-05-09T03:13:18;92138.00;;;17.42;33.18
17521;BME280;8878;-33.370;-70.552;2023-05-09T03:15:49;92139.72;;;17.38;32.46
17521;BME280;8878;-33.370;-70.552;2023-05-09T03:18:19;92140.06;;;17.45;32.79
17521;BME280;8878;-33.370;-70.552;2023-05-09T03:20:49;92146.34;;;17.40;32.09
17521;BME280;8878;-33.370;-70.552;2023-05-09T03:23:18;92147.72;;;17.38;33.05
17521;BME280;8878;-33.370;-70.552;2023-05-09T03:25:48;92162.75;;;17.34;33.54
17521;BME280;8878;-33.370;-70.552;2023-05-09T03:28:18;92178.47;;;17.13;30.98
17521;BME280;8878;-33.370;-70.552;2023-05-09T03:30:49;92195.50;;;16.81;30.33
17521;BME280;8878;-33.370;-70.552;2023-05-09T03:33:19;92200.78;;;17.17;29.96
17521;BME280;8878;-33.370;-70.552;2023-05-09T03:35:48;92210.22;;;17.23;29.74
17521;BME280;8878;-33.370;-70.552;2023-05-09T03:38:18;92221.91;;;17.36;29.61
17521;BME280;8878;-33.370;-70.552;2023-05-09T03:40:50;92233.00;;;17.29;30.18
17521;BME280;8878;-33.370;-70.552;2023-05-09T03:43:19;92240.25;;;17.59;30.04
17521;BME280;8878;-33.370;-70.552;2023-05-09T03:45:51;92257.38;;;17.89;29.08
17521;BME280;8878;-33.370;-70.552;2023-05-09T03:48:20;92261.59;;;17.82;29.06
17521;BME280;8878;-33.370;-70.552;2023-05-09T03:50:50;92265.28;;;18.03;30.59
17521;BME280;8878;-33.370;-70.552;2023-05-09T03:53:20;92262.69;;;18.29;32.91
17521;BME280;8878;-33.370;-70.552;2023-05-09T03:55:50;92262.13;;;18.01;34.52
17521;BME280;8878;-33.370;-70.552;2023-05-09T03:58:20;92263.47;;;17.81;33.27
17521;BME280;8878;-33.370;-70.552;2023-05-09T04:00:51;92256.44;;;17.63;35.76
17521;BME280;8878;-33.370;-70.552;2023-05-09T04:03:21;92250.50;;;17.44;35.04
17521;BME280;8878;-33.370;-70.552;2023-05-09T04:05:50;92248.31;;;17.46;35.03
17521;BME280;8878;-33.370;-70.552;2023-05-09T04:08:20;92244.88;;;17.45;35.14
17521;BME280;8878;-33.370;-70.552;2023-05-09T04:10:50;92245.03;;;17.27;32.19
17521;BME280;8878;-33.370;-70.552;2023-05-09T04:13:20;92250.56;;;17.30;31.66
17521;BME280;8878;-33.370;-70.552;2023-05-09T04:15:51;92239.69;;;17.40;32.26
17521;BME280;8878;-33.370;-70.552;2023-05-09T04:18:21;92249.13;;;17.46;32.04
17521;BME280;8878;-33.370;-70.552;2023-05-09T04:20:51;92251.09;;;17.41;32.36
17521;BME280;8878;-33.370;-70.552;2023-05-09T04:23:21;92246.34;;;17.29;32.51
17521;BME280;8878;-33.370;-70.552;2023-05-09T04:25:50;92241.00;;;17.29;33.29
17521;BME280;8878;-33.370;-70.552;2023-05-09T04:28:20;92237.19;;;17.21;34.19
17521;BME280;8878;-33.370;-70.552;2023-05-09T04:30:52;92233.06;;;17.15;34.15
17521;BME280;8878;-33.370;-70.552;2023-05-09T04:33:22;92233.13;;;17.02;34.68
17521;BME280;8878;-33.370;-70.552;2023-05-09T04:35:53;92219.94;;;16.97;35.04
17521;BME280;8878;-33.370;-70.552;2023-05-09T04:38:23;92218.06;;;16.97;34.50
17521;BME280;8878;-33.370;-70.552;2023-05-09T04:40:53;92223.47;;;16.92;34.45
17521;BME280;8878;-33.370;-70.552;2023-05-09T04:43:23;92214.28;;;16.98;34.20
17521;BME280;8878;-33.370;-70.552;2023-05-09T04:45:55;92203.81;;;17.02;33.64
17521;BME280;8878;-33.370;-70.552;2023-05-09T04:48:25;92204.19;;;17.09;31.88
17521;BME280;8878;-33.370;-70.552;2023-05-09T04:50:54;92197.50;;;17.20;30.94
17521;BME280;8878;-33.370;-70.552;2023-05-09T04:53:24;92204.47;;;17.07;30.80
17521;BME280;8878;-33.370;-70.552;2023-05-09T04:55:54;92198.59;;;16.97;30.70
17521;BME280;8878;-33.370;-70.552;2023-05-09T04:58:24;92201.94;;;16.80;30.64
17521;BME280;8878;-33.370;-70.552;2023-05-09T05:00:55;92197.03;;;16.73;30.86
17521;BME280;8878;-33.370;-70.552;2023-05-09T05:03:25;92182.50;;;16.79;31.12
17521;BME280;8878;-33.370;-70.552;2023-05-09T05:05:54;92179.88;;;16.88;30.86
17521;BME280;8878;-33.370;-70.552;2023-05-09T05:08:24;92176.66;;;17.00;30.13
17521;BME280;8878;-33.370;-70.552;2023-05-09T05:10:54;92173.28;;;17.08;30.93
17521;BME280;8878;-33.370;-70.552;2023-05-09T05:13:24;92177.81;;;17.07;30.83
17521;BME280;8878;-33.370;-70.552;2023-05-09T05:15:55;92183.78;;;17.04;30.55
17521;BME280;8878;-33.370;-70.552;2023-05-09T05:18:25;92182.56;;;16.88;30.30
17521;BME280;8878;-33.370;-70.552;2023-05-09T05:20:55;92201.84;;;16.71;30.19
17521;BME280;8878;-33.370;-70.552;2023-05-09T05:23:25;92206.00;;;16.64;28.94
17521;BME280;8878;-33.370;-70.552;2023-05-09T05:25:55;92202.72;;;16.80;28.61
17521;BME280;8878;-33.370;-70.552;2023-05-09T05:28:24;92213.81;;;16.96;28.58
17521;BME280;8878;-33.370;-70.552;2023-05-09T05:30:55;92217.94;;;17.02;28.71
17521;BME280;8878;-33.370;-70.552;2023-05-09T05:33:25;92208.28;;;16.93;30.10
17521;BME280;8878;-33.370;-70.552;2023-05-09T05:35:55;92213.25;;;16.86;31.83
17521;BME280;8878;-33.370;-70.552;2023-05-09T05:38:24;92217.25;;;16.74;31.84
17521;BME280;8878;-33.370;-70.552;2023-05-09T05:40:54;92209.19;;;16.52;33.23
17521;BME280;8878;-33.370;-70.552;2023-05-09T05:43:24;92212.75;;;16.48;33.20
17521;BME280;8878;-33.370;-70.552;2023-05-09T05:45:56;92218.25;;;16.51;31.69
17521;BME280;8878;-33.370;-70.552;2023-05-09T05:48:25;92217.66;;;16.54;31.32
17521;BME280;8878;-33.370;-70.552;2023-05-09T05:50:55;92212.16;;;16.51;32.02
17521;BME280;8878;-33.370;-70.552;2023-05-09T05:53:25;92208.72;;;16.36;31.46
17521;BME280;8878;-33.370;-70.552;2023-05-09T05:55:54;92207.47;;;16.34;30.41
17521;BME280;8878;-33.370;-70.552;2023-05-09T05:58:24;92209.75;;;16.27;28.70
17521;BME280;8878;-33.370;-70.552;2023-05-09T06:00:56;92209.59;;;16.45;29.92
17521;BME280;8878;-33.370;-70.552;2023-05-09T06:03:25;92215.97;;;16.72;30.30
17521;BME280;8878;-33.370;-70.552;2023-05-09T06:05:55;92201.22;;;16.88;30.02
17521;BME280;8878;-33.370;-70.552;2023-05-09T06:08:25;92203.25;;;16.91;28.40
17521;BME280;8878;-33.370;-70.552;2023-05-09T06:10:55;92201.31;;;17.05;28.89
17521;BME280;8878;-33.370;-70.552;2023-05-09T06:13:26;92192.56;;;17.05;30.71
17521;BME280;8878;-33.370;-70.552;2023-05-09T06:15:58;92199.94;;;16.86;32.62
17521;BME280;8878;-33.370;-70.552;2023-05-09T06:18:28;92203.63;;;16.76;32.78
17521;BME280;8878;-33.370;-70.552;2023-05-09T06:20:58;92201.78;;;16.63;32.20
17521;BME280;8878;-33.370;-70.552;2023-05-09T06:23:27;92200.69;;;16.64;32.33
17521;BME280;8878;-33.370;-70.552;2023-05-09T06:25:57;92195.19;;;16.60;32.93
17521;BME280;8878;-33.370;-70.552;2023-05-09T06:28:27;92198.72;;;16.56;32.46
17521;BME280;8878;-33.370;-70.552;2023-05-09T06:30:58;92189.63;;;16.57;33.13
17521;BME280;8878;-33.370;-70.552;2023-05-09T06:33:28;92185.09;;;16.57;33.75
17521;BME280;8878;-33.370;-70.552;2023-05-09T06:35:59;92197.16;;;16.55;33.60
17521;BME280;8878;-33.370;-70.552;2023-05-09T06:38:29;92187.00;;;16.43;33.21
17521;BME280;8878;-33.370;-70.552;2023-05-09T06:40:58;92191.06;;;16.40;32.00
17521;BME280;8878;-33.370;-70.552;2023-05-09T06:43:28;92200.94;;;16.40;31.60
17521;BME280;8878;-33.370;-70.552;2023-05-09T06:46:00;92197.94;;;16.55;31.22
17521;BME280;8878;-33.370;-70.552;2023-05-09T06:48:29;92202.16;;;16.56;31.28
17521;BME280;8878;-33.370;-70.552;2023-05-09T06:50:59;92197.63;;;16.57;31.04
17521;BME280;8878;-33.370;-70.552;2023-05-09T06:53:28;92209.22;;;16.38;29.16
17521;BME280;8878;-33.370;-70.552;2023-05-09T06:55:58;92203.28;;;16.41;27.67
17521;BME280;8878;-33.370;-70.552;2023-05-09T06:58:28;92208.59;;;16.69;27.00
17521;BME280;8878;-33.370;-70.552;2023-05-09T07:00:59;92204.44;;;16.63;31.04
17521;BME280;8878;-33.370;-70.552;2023-05-09T07:03:31;92203.38;;;16.50;30.34
17521;BME280;8878;-33.370;-70.552;2023-05-09T07:06:01;92207.44;;;16.48;27.37
17521;BME280;8878;-33.370;-70.552;2023-05-09T07:08:31;92200.34;;;16.79;28.33
17521;BME280;8878;-33.370;-70.552;2023-05-09T07:11:02;92195.44;;;16.72;31.89
17521;BME280;8878;-33.370;-70.552;2023-05-09T07:13:32;92192.63;;;16.41;29.95
17521;BME280;8878;-33.370;-70.552;2023-05-09T07:16:03;92192.13;;;16.67;28.37
17521;BME280;8878;-33.370;-70.552;2023-05-09T07:18:34;92197.44;;;16.67;31.00
17521;BME280;8878;-33.370;-70.552;2023-05-09T07:21:03;92191.72;;;16.60;30.80
17521;BME280;8878;-33.370;-70.552;2023-05-09T07:23:33;92193.69;;;16.54;29.29
17521;BME280;8878;-33.370;-70.552;2023-05-09T07:26:03;92190.72;;;16.56;31.24
17521;BME280;8878;-33.370;-70.552;2023-05-09T07:28:33;92192.13;;;16.53;31.48
17521;BME280;8878;-33.370;-70.552;2023-05-09T07:31:04;92190.84;;;16.51;30.32
17521;BME280;8878;-33.370;-70.552;2023-05-09T07:33:35;92187.69;;;16.49;30.21
17521;BME280;8878;-33.370;-70.552;2023-05-09T07:36:05;92185.75;;;16.40;31.80
17521;BME280;8878;-33.370;-70.552;2023-05-09T07:38:38;92180.13;;;16.28;33.10
17521;BME280;8878;-33.370;-70.552;2023-05-09T07:41:08;92185.78;;;16.13;33.82
17521;BME280;8878;-33.370;-70.552;2023-05-09T07:43:37;92180.06;;;16.06;33.82
17521;BME280;8878;-33.370;-70.552;2023-05-09T07:46:09;92182.66;;;15.97;34.11
17521;BME280;8878;-33.370;-70.552;2023-05-09T07:48:38;92180.09;;;15.92;33.53
17521;BME280;8878;-33.370;-70.552;2023-05-09T07:51:10;92184.53;;;15.97;33.21
17521;BME280;8878;-33.370;-70.552;2023-05-09T07:53:40;92182.97;;;15.96;33.03
17521;BME280;8878;-33.370;-70.552;2023-05-09T07:56:09;92191.13;;;15.86;32.35
17521;BME280;8878;-33.370;-70.552;2023-05-09T07:58:39;92181.09;;;15.83;31.82
17521;BME280;8878;-33.370;-70.552;2023-05-09T08:01:11;92189.66;;;15.80;31.86
17521;BME280;8878;-33.370;-70.552;2023-05-09T08:03:41;92196.06;;;15.79;31.85
17521;BME280;8878;-33.370;-70.552;2023-05-09T08:06:10;92192.72;;;15.59;32.23
17521;BME280;8878;-33.370;-70.552;2023-05-09T08:08:40;92205.50;;;15.57;32.50
17521;BME280;8878;-33.370;-70.552;2023-05-09T08:11:11;92202.94;;;15.52;32.68
17521;BME280;8878;-33.370;-70.552;2023-05-09T08:13:40;92203.16;;;15.56;31.05
17521;BME280;8878;-33.370;-70.552;2023-05-09T08:16:12;92214.22;;;15.63;30.88
17521;BME280;8878;-33.370;-70.552;2023-05-09T08:18:43;92209.84;;;15.53;31.97
17521;BME280;8878;-33.370;-70.552;2023-05-09T08:21:13;92215.13;;;15.40;33.55
17521;BME280;8878;-33.370;-70.552;2023-05-09T08:23:42;92218.97;;;15.34;33.18
17521;BME280;8878;-33.370;-70.552;2023-05-09T08:26:12;92224.28;;;15.34;32.92
17521;BME280;8878;-33.370;-70.552;2023-05-09T08:28:42;92209.19;;;15.29;33.13
17521;BME280;8878;-33.370;-70.552;2023-05-09T08:31:13;92210.19;;;15.33;32.30
17521;BME280;8878;-33.370;-70.552;2023-05-09T08:33:42;92204.69;;;15.43;31.92
17521;BME280;8878;-33.370;-70.552;2023-05-09T08:36:12;92202.66;;;15.54;31.62
17521;BME280;8878;-33.370;-70.552;2023-05-09T08:38:42;92204.94;;;15.60;31.55
17521;BME280;8878;-33.370;-70.552;2023-05-09T08:41:11;92205.69;;;15.47;32.81
17521;BME280;8878;-33.370;-70.552;2023-05-09T08:43:41;92207.00;;;15.17;31.65
17521;BME280;8878;-33.370;-70.552;2023-05-09T08:46:14;92205.94;;;15.32;31.57
17521;BME280;8878;-33.370;-70.552;2023-05-09T08:48:45;92204.19;;;15.41;32.16
17521;BME280;8878;-33.370;-70.552;2023-05-09T08:51:15;92193.91;;;15.53;31.15
17521;BME280;8878;-33.370;-70.552;2023-05-09T08:53:45;92184.63;;;15.64;30.76
17521;BME280;8878;-33.370;-70.552;2023-05-09T08:56:15;92184.34;;;15.80;30.21
17521;BME280;8878;-33.370;-70.552;2023-05-09T08:58:45;92179.72;;;15.85;30.13
17521;BME280;8878;-33.370;-70.552;2023-05-09T09:01:17;92184.44;;;15.88;30.10
17521;BME280;8878;-33.370;-70.552;2023-05-09T09:03:48;92178.03;;;16.03;29.41
17521;BME280;8878;-33.370;-70.552;2023-05-09T09:06:19;92177.91;;;16.08;30.45
17521;BME280;8878;-33.370;-70.552;2023-05-09T09:08:53;92174.88;;;15.87;30.52
17521;BME280;8878;-33.370;-70.552;2023-05-09T09:11:23;92165.63;;;15.85;29.73
17521;BME280;8878;-33.370;-70.552;2023-05-09T09:13:53;92153.81;;;15.77;31.97
17521;BME280;8878;-33.370;-70.552;2023-05-09T09:16:27;92153.81;;;15.63;31.81
17521;BME280;8878;-33.370;-70.552;2023-05-09T09:18:58;92142.66;;;15.48;31.55
17521;BME280;8878;-33.370;-70.552;2023-05-09T09:21:28;92146.09;;;15.35;32.39
17521;BME280;8878;-33.370;-70.552;2023-05-09T09:24:00;92141.75;;;15.25;31.84
17521;BME280;8878;-33.370;-70.552;2023-05-09T09:26:32;92138.00;;;15.12;31.87
17521;BME280;8878;-33.370;-70.552;2023-05-09T09:29:01;92137.63;;;14.86;30.52
17521;BME280;8878;-33.370;-70.552;2023-05-09T09:31:33;92133.97;;;15.15;28.29
17521;BME280;8878;-33.370;-70.552;2023-05-09T09:34:03;92122.75;;;15.45;27.90
17521;BME280;8878;-33.370;-70.552;2023-05-09T09:36:32;92125.75;;;15.57;27.55
17521;BME280;8878;-33.370;-70.552;2023-05-09T09:39:03;92133.13;;;15.74;27.47
17521;BME280;8878;-33.370;-70.552;2023-05-09T09:41:33;92128.47;;;15.52;27.68
17521;BME280;8878;-33.370;-70.552;2023-05-09T09:44:09;92132.63;;;15.58;27.47
17521;BME280;8878;-33.370;-70.552;2023-05-09T09:46:46;92127.91;;;15.69;30.39
17521;BME280;8878;-33.370;-70.552;2023-05-09T09:49:17;92131.56;;;15.59;30.13
17521;BME280;8878;-33.370;-70.552;2023-05-09T09:51:50;92132.34;;;15.60;27.48
17521;BME280;8878;-33.370;-70.552;2023-05-09T09:54:20;92134.59;;;15.80;25.86
17521;BME280;8878;-33.370;-70.552;2023-05-09T09:56:51;92134.78;;;15.97;27.99
17521;BME280;8878;-33.370;-70.552;2023-05-09T09:59:23;92138.13;;;16.03;26.22
17521;BME280;8878;-33.370;-70.552;2023-05-09T10:01:58;92142.63;;;16.16;26.63
17521;BME280;8878;-33.370;-70.552;2023-05-09T10:04:30;92154.00;;;16.30;26.84
17521;BME280;8878;-33.370;-70.552;2023-05-09T10:07:01;92163.59;;;16.31;28.65
17521;BME280;8878;-33.370;-70.552;2023-05-09T10:09:32;92168.22;;;16.26;29.72
17521;BME280;8878;-33.370;-70.552;2023-05-09T10:12:04;92175.13;;;16.13;30.50
17521;BME280;8878;-33.370;-70.552;2023-05-09T10:14:35;92177.63;;;16.10;29.44
17521;BME280;8878;-33.370;-70.552;2023-05-09T10:17:08;92170.81;;;16.17;28.74
17521;BME280;8878;-33.370;-70.552;2023-05-09T10:19:42;92171.59;;;16.18;28.51
17521;BME280;8878;-33.370;-70.552;2023-05-09T10:22:14;92165.28;;;16.14;28.54
17521;BME280;8878;-33.370;-70.552;2023-05-09T10:24:47;92166.94;;;16.23;29.38
17521;BME280;8878;-33.370;-70.552;2023-05-09T10:27:21;92170.53;;;16.19;30.67
17521;BME280;8878;-33.370;-70.552;2023-05-09T10:29:56;92171.81;;;15.94;31.58
17521;BME280;8878;-33.370;-70.552;2023-05-09T10:32:40;92161.78;;;15.63;30.36
17521;BME280;8878;-33.370;-70.552;2023-05-09T10:35:11;92159.91;;;15.78;30.17
17521;BME280;8878;-33.370;-70.552;2023-05-09T10:37:44;92158.91;;;15.87;29.52
17521;BME280;8878;-33.370;-70.552;2023-05-09T10:40:14;92156.06;;;15.97;28.94
17521;BME280;8878;-33.370;-70.552;2023-05-09T10:42:45;92151.31;;;16.08;28.17
17521;BME280;8878;-33.370;-70.552;2023-05-09T10:45:15;92136.41;;;16.07;27.99
17521;BME280;8878;-33.370;-70.552;2023-05-09T10:47:48;92130.31;;;16.06;27.91
17521;BME280;8878;-33.370;-70.552;2023-05-09T10:50:19;92126.09;;;15.92;28.37
17521;BME280;8878;-33.370;-70.552;2023-05-09T10:53:08;92119.19;;;16.04;28.39
17521;BME280;8878;-33.370;-70.552;2023-05-09T10:55:50;92108.47;;;15.96;28.37
17521;BME280;8878;-33.370;-70.552;2023-05-09T10:58:23;92107.47;;;16.05;29.26
17521;BME280;8878;-33.370;-70.552;2023-05-09T11:00:54;92106.69;;;16.05;27.76
17521;BME280;8878;-33.370;-70.552;2023-05-09T11:03:26;92106.44;;;16.15;28.60
17521;BME280;8878;-33.370;-70.552;2023-05-09T11:05:57;92107.72;;;16.18;29.61
17521;BME280;8878;-33.370;-70.552;2023-05-09T11:08:27;92110.03;;;15.97;29.28
17521;BME280;8878;-33.370;-70.552;2023-05-09T11:11:03;92098.06;;;15.58;29.85
17521;BME280;8878;-33.370;-70.552;2023-05-09T11:13:36;92106.03;;;15.31;30.19
17521;BME280;8878;-33.370;-70.552;2023-05-09T11:16:09;92116.84;;;15.35;30.44
17521;BME280;8878;-33.370;-70.552;2023-05-09T11:18:53;92119.50;;;15.21;29.75
17521;BME280;8878;-33.370;-70.552;2023-05-09T11:21:23;92124.13;;;15.15;28.49
17521;BME280;8878;-33.370;-70.552;2023-05-09T11:23:52;92132.97;;;15.11;27.64
17521;BME280;8878;-33.370;-70.552;2023-05-09T11:26:22;92127.88;;;15.96;23.85
17521;BME280;8878;-33.370;-70.552;2023-05-09T11:28:59;92117.69;;;16.48;26.41
17521;BME280;8878;-33.370;-70.552;2023-05-09T11:31:28;92129.50;;;16.42;28.00
17521;BME280;8878;-33.370;-70.552;2023-05-09T11:34:03;92139.56;;;16.45;27.85
17521;BME280;8878;-33.370;-70.552;2023-05-09T11:36:33;92150.03;;;16.41;27.39
17521;BME280;8878;-33.370;-70.552;2023-05-09T11:39:04;92150.00;;;16.55;26.63
17521;BME280;8878;-33.370;-70.552;2023-05-09T11:41:41;92151.38;;;16.89;27.56
17521;BME280;8878;-33.370;-70.552;2023-05-09T11:44:14;92143.91;;;16.99;27.13
17521;BME280;8878;-33.370;-70.552;2023-05-09T11:46:45;92156.84;;;17.14;26.82
17521;BME280;8878;-33.370;-70.552;2023-05-09T11:49:16;92153.16;;;17.24;26.41
17521;BME280;8878;-33.370;-70.552;2023-05-09T11:51:46;92147.88;;;17.33;28.96
17521;BME280;8878;-33.370;-70.552;2023-05-09T11:54:16;92138.88;;;17.29;29.86
17521;BME280;8878;-33.370;-70.552;2023-05-09T11:56:48;92144.78;;;17.17;31.24
17521;BME280;8878;-33.370;-70.552;2023-05-09T11:59:17;92140.09;;;16.92;30.60
17521;BME280;8878;-33.370;-70.552;2023-05-09T12:01:48;92144.84;;;16.59;28.69
17521;BME280;8878;-33.370;-70.552;2023-05-09T12:04:19;92144.16;;;16.89;28.89
17521;BME280;8878;-33.370;-70.552;2023-05-09T12:06:49;92162.03;;;17.19;28.71
17521;BME280;8878;-33.370;-70.552;2023-05-09T12:09:18;92159.31;;;17.33;29.31
17521;BME280;8878;-33.370;-70.552;2023-05-09T12:11:48;92172.22;;;17.48;30.18
17521;BME280;8878;-33.370;-70.552;2023-05-09T12:14:35;92167.47;;;17.37;32.08
17521;BME280;8878;-33.370;-70.552;2023-05-09T12:17:06;92173.25;;;17.30;31.86
17521;BME280;8878;-33.370;-70.552;2023-05-09T12:19:37;92157.63;;;17.15;31.43
17521;BME280;8878;-33.370;-70.552;2023-05-09T12:22:07;92155.91;;;17.10;30.69
17521;BME280;8878;-33.370;-70.552;2023-05-09T12:24:36;92157.31;;;17.39;31.14
17521;BME280;8878;-33.370;-70.552;2023-05-09T12:27:06;92154.69;;;17.56;30.33
17521;BME280;8878;-33.370;-70.552;2023-05-09T12:29:35;92152.13;;;17.73;31.07
17521;BME280;8878;-33.370;-70.552;2023-05-09T12:32:06;92148.69;;;17.73;32.71
17521;BME280;8878;-33.370;-70.552;2023-05-09T12:34:37;92156.97;;;17.71;32.16
17521;BME280;8878;-33.370;-70.552;2023-05-09T12:37:14;92165.19;;;17.75;32.60
17521;BME280;8878;-33.370;-70.552;2023-05-09T12:39:58;92162.22;;;17.85;32.78
17521;BME280;8878;-33.370;-70.552;2023-05-09T12:42:30;92168.19;;;17.90;29.57
17521;BME280;8878;-33.370;-70.552;2023-05-09T12:45:00;92174.25;;;18.22;29.72
17521;BME280;8878;-33.370;-70.552;2023-05-09T12:47:31;92181.66;;;18.51;29.12
17521;BME280;8878;-33.370;-70.552;2023-05-09T12:50:03;92184.38;;;18.76;28.93
17521;BME280;8878;-33.370;-70.552;2023-05-09T12:52:34;92179.97;;;18.98;29.16
17521;BME280;8878;-33.370;-70.552;2023-05-09T12:55:08;92178.25;;;19.02;30.20
17521;BME280;8878;-33.370;-70.552;2023-05-09T12:57:38;92179.66;;;18.99;30.97
17521;BME280;8878;-33.370;-70.552;2023-05-09T13:00:11;92188.16;;;19.01;31.06
17521;BME280;8878;-33.370;-70.552;2023-05-09T13:02:41;92181.41;;;19.04;30.40